Time;durP1;ratioP1;P1;durP2;ratioP2;P2;SDS_P1;SDS_P2;PMS_P1;PMS_P2;Temp;Humidity;BMP_temperature;BMP_pressure;BME280_temperature;BME280_humidity;BME280_pressure;Samples;Min_cycle;Max_cycle;Signal;HPM_P1;HPM_P2
2022/03/05 00:02:20;;;;;;;12.43;4.53;;;4.10;99.90;;;;;;5054308;28;20541;-57
2022/03/05 00:04:47;;;;;;;6.47;3.70;;;4.00;99.90;;;;;;5054857;28;20600;-53
2022/03/05 00:07:14;;;;;;;10.27;4.80;;;4.00;99.90;;;;;;5061064;28;20524;-57
2022/03/05 00:09:41;;;;;;;10.53;4.40;;;3.90;99.90;;;;;;5060395;28;20430;-61
2022/03/05 00:12:08;;;;;;;9.17;4.40;;;3.90;99.90;;;;;;5058111;28;20451;-56
2022/03/05 00:14:36;;;;;;;11.67;4.23;;;3.90;99.90;;;;;;5057689;28;20827;-57
2022/03/05 00:17:04;;;;;;;10.30;3.60;;;3.80;99.90;;;;;;5057850;28;20443;-56
2022/03/05 00:19:30;;;;;;;7.27;4.13;;;3.80;99.90;;;;;;5058176;28;20479;-58
2022/03/05 00:21:59;;;;;;;6.13;4.00;;;3.80;99.90;;;;;;5058221;28;20440;-58
2022/03/05 00:24:26;;;;;;;7.40;3.87;;;3.70;99.90;;;;;;5057866;28;20568;-56
2022/03/05 00:26:52;;;;;;;7.73;3.83;;;3.60;99.90;;;;;;5058152;28;20481;-56
2022/03/05 00:29:19;;;;;;;8.17;4.90;;;3.60;99.90;;;;;;5060097;28;20454;-56
2022/03/05 00:31:47;;;;;;;8.27;4.53;;;3.50;99.90;;;;;;5061704;28;20951;-57
2022/03/05 00:34:14;;;;;;;6.43;3.47;;;3.50;99.90;;;;;;5058138;28;20483;-58
2022/03/05 00:36:41;;;;;;;8.33;3.63;;;3.40;99.90;;;;;;5058022;28;20454;-57
2022/03/05 00:39:07;;;;;;;8.83;4.90;;;3.40;99.90;;;;;;5058948;28;20475;-61
2022/03/05 00:41:34;;;;;;;5.70;3.80;;;3.40;99.90;;;;;;5066623;28;20439;-57
2022/03/05 00:44:01;;;;;;;9.70;5.70;;;3.40;99.90;;;;;;5066052;28;20514;-58
2022/03/05 00:46:28;;;;;;;4.90;3.10;;;3.40;99.90;;;;;;5066167;28;20443;-59
2022/03/05 00:48:56;;;;;;;9.80;5.00;;;3.40;99.90;;;;;;5068245;28;20473;-58
2022/03/05 00:51:23;;;;;;;9.60;4.30;;;3.30;99.90;;;;;;5064288;28;20466;-57
2022/03/05 00:53:50;;;;;;;9.00;4.40;;;3.30;99.90;;;;;;5063045;28;20443;-57
2022/03/05 00:56:16;;;;;;;10.30;4.50;;;3.30;99.90;;;;;;5064074;28;20489;-56
2022/03/05 00:58:43;;;;;;;7.33;4.00;;;3.30;99.90;;;;;;5071317;28;20451;-57
2022/03/05 01:01:10;;;;;;;7.53;4.03;;;3.20;99.90;;;;;;5076108;28;20503;-58
2022/03/05 01:03:37;;;;;;;7.40;3.93;;;3.20;99.90;;;;;;5076288;28;20458;-57
2022/03/05 01:06:06;;;;;;;9.73;4.27;;;3.20;99.90;;;;;;5076495;28;20423;-54
2022/03/05 01:08:34;;;;;;;11.33;5.20;;;3.10;99.90;;;;;;5076787;28;20473;-53
2022/03/05 01:11:01;;;;;;;8.07;4.40;;;3.10;99.90;;;;;;5076131;28;20443;-52
2022/03/05 01:13:28;;;;;;;6.53;3.73;;;3.10;99.90;;;;;;5076711;28;20644;-50
2022/03/05 01:15:55;;;;;;;12.67;5.40;;;3.10;99.90;;;;;;5076135;28;20475;-54
2022/03/05 01:18:22;;;;;;;10.47;4.20;;;3.10;99.90;;;;;;5075435;28;20439;-55
2022/03/05 01:20:51;;;;;;;8.77;4.57;;;3.10;99.90;;;;;;5076794;28;20487;-51
2022/03/05 01:23:19;;;;;;;7.70;6.90;;;3.00;99.90;;;;;;5077271;28;20874;-56
2022/03/05 01:25:49;;;;;;;8.70;4.67;;;3.00;99.90;;;;;;5077362;28;20463;-59
2022/03/05 01:28:16;;;;;;;9.57;4.77;;;3.00;99.90;;;;;;5077433;28;20444;-49
2022/03/05 01:30:44;;;;;;;17.13;5.37;;;3.00;99.90;;;;;;5075937;28;20431;-49
2022/03/05 01:33:15;;;;;;;8.90;5.70;;;3.00;99.90;;;;;;5076510;28;20485;-53
2022/03/05 01:35:42;;;;;;;4.90;4.30;;;3.00;99.90;;;;;;5075968;28;20769;-55
2022/03/05 01:38:09;;;;;;;10.03;4.83;;;2.90;99.90;;;;;;5076269;28;20507;-50
2022/03/05 01:40:39;;;;;;;9.50;5.60;;;2.90;99.90;;;;;;5076260;28;20485;-53
2022/03/05 01:43:06;;;;;;;9.50;5.27;;;2.90;99.90;;;;;;5076127;28;20650;-51
2022/03/05 01:45:34;;;;;;;8.53;4.47;;;2.90;99.90;;;;;;5075490;28;20447;-54
2022/03/05 01:48:02;;;;;;;10.07;5.40;;;2.90;99.90;;;;;;5076175;28;20443;-54
2022/03/05 01:50:29;;;;;;;12.07;5.43;;;2.90;99.90;;;;;;5075973;28;20510;-53
2022/03/05 01:52:55;;;;;;;11.57;5.40;;;2.90;99.90;;;;;;5075696;28;20447;-54
2022/03/05 01:55:23;;;;;;;18.10;4.60;;;2.80;99.90;;;;;;5075466;28;20488;-56
2022/03/05 01:57:51;;;;;;;11.97;4.30;;;2.80;99.90;;;;;;5076129;28;20501;-54
2022/03/05 02:00:19;;;;;;;7.63;5.53;;;2.80;99.90;;;;;;5075560;28;20454;-59
2022/03/05 02:02:46;;;;;;;8.50;6.60;;;2.80;99.90;;;;;;5076320;28;20428;-50
2022/03/05 02:05:14;;;;;;;7.90;5.10;;;2.80;99.90;;;;;;5075368;28;20443;-56
2022/03/05 02:07:42;;;;;;;8.87;4.33;;;2.80;99.90;;;;;;5075472;28;20473;-49
2022/03/05 02:10:10;;;;;;;10.57;4.90;;;2.80;99.90;;;;;;5075545;28;20481;-53
2022/03/05 02:12:38;;;;;;;8.13;4.20;;;2.70;99.90;;;;;;5074303;28;20456;-50
2022/03/05 02:15:08;;;;;;;6.93;4.53;;;2.70;99.90;;;;;;5075506;28;20773;-56
2022/03/05 02:17:36;;;;;;;9.33;4.80;;;2.70;99.90;;;;;;5075236;28;20439;-60
2022/03/05 02:20:04;;;;;;;8.80;5.00;;;2.70;99.90;;;;;;5075683;28;20471;-66
2022/03/05 02:22:32;;;;;;;12.93;5.07;;;2.70;99.90;;;;;;5076010;28;20443;-56
2022/03/05 02:24:59;;;;;;;8.73;4.53;;;2.70;99.90;;;;;;5075335;28;20459;-49
2022/03/05 02:27:27;;;;;;;8.30;4.67;;;2.70;99.90;;;;;;5075356;28;20462;-51
2022/03/05 02:29:55;;;;;;;11.30;6.07;;;2.80;99.90;;;;;;5075709;28;20474;-54
2022/03/05 02:32:22;;;;;;;8.57;5.50;;;2.70;99.90;;;;;;5073792;28;20459;-50
2022/03/05 02:34:48;;;;;;;6.00;4.57;;;2.80;99.90;;;;;;5074882;28;20482;-56
2022/03/05 02:37:17;;;;;;;8.30;4.60;;;2.70;99.90;;;;;;5075276;28;20497;-55
2022/03/05 02:39:47;;;;;;;7.87;5.87;;;2.70;99.90;;;;;;5098357;22;20481;-55
2022/03/05 02:42:16;;;;;;;8.77;4.73;;;2.70;99.90;;;;;;5075764;28;20423;-51
2022/03/05 02:44:44;;;;;;;5.17;4.67;;;2.70;99.90;;;;;;5075675;28;20478;-57
2022/03/05 02:47:11;;;;;;;9.30;4.73;;;2.70;99.90;;;;;;5075687;28;20451;-56
2022/03/05 02:49:37;;;;;;;9.90;4.43;;;2.70;99.90;;;;;;5075607;28;20498;-57
2022/03/05 02:52:05;;;;;;;7.57;4.17;;;2.70;99.90;;;;;;5075651;28;20431;-57
2022/03/05 02:54:32;;;;;;;11.13;4.63;;;2.70;99.90;;;;;;5075636;28;20451;-52
2022/03/05 02:57:02;;;;;;;14.27;5.40;;;2.70;99.90;;;;;;5074921;28;20501;-59
2022/03/05 02:59:28;;;;;;;14.93;5.63;;;2.60;99.90;;;;;;5075584;28;20474;-57
2022/03/05 03:01:56;;;;;;;5.53;3.77;;;2.60;99.90;;;;;;5075974;28;20451;-55
2022/03/05 03:04:25;;;;;;;7.30;4.77;;;2.60;99.90;;;;;;5075490;28;20454;-52
2022/03/05 03:06:54;;;;;;;9.67;4.13;;;2.60;99.90;;;;;;5076172;28;20423;-50
2022/03/05 03:09:21;;;;;;;6.93;5.33;;;2.50;99.90;;;;;;5075893;28;20592;-58
2022/03/05 03:11:51;;;;;;;9.27;4.70;;;2.50;99.90;;;;;;5075656;28;20434;-54
2022/03/05 03:14:21;;;;;;;7.40;4.03;;;2.50;99.90;;;;;;5075545;28;20452;-58
2022/03/05 03:16:48;;;;;;;13.13;5.00;;;2.50;99.90;;;;;;5075937;28;20505;-56
2022/03/05 03:19:14;;;;;;;13.10;5.50;;;2.50;99.90;;;;;;5075694;28;20497;-60
2022/03/05 03:21:43;;;;;;;14.90;5.17;;;2.50;99.90;;;;;;5075464;28;20419;-57
2022/03/05 03:24:10;;;;;;;11.63;5.07;;;2.50;99.90;;;;;;5075678;28;20431;-53
2022/03/05 03:26:36;;;;;;;18.93;4.63;;;2.50;99.90;;;;;;5075981;28;20431;-58
2022/03/05 03:29:03;;;;;;;9.80;5.80;;;2.40;99.90;;;;;;5076084;28;20423;-55
2022/03/05 03:31:31;;;;;;;7.53;4.70;;;2.40;99.90;;;;;;5075337;28;20470;-53
2022/03/05 03:33:58;;;;;;;9.50;4.53;;;2.40;99.90;;;;;;5075329;28;20443;-55
2022/03/05 03:36:25;;;;;;;13.53;4.97;;;2.40;99.90;;;;;;5074822;28;20517;-58
2022/03/05 03:38:52;;;;;;;10.43;5.37;;;2.40;99.90;;;;;;5075506;28;20444;-55
2022/03/05 03:41:18;;;;;;;6.10;3.83;;;2.40;99.90;;;;;;5075055;28;20479;-53
2022/03/05 03:43:45;;;;;;;7.53;4.50;;;2.40;99.90;;;;;;5075239;28;20474;-57
2022/03/05 03:46:13;;;;;;;14.60;5.00;;;2.40;99.90;;;;;;5075187;28;20525;-60
2022/03/05 03:48:41;;;;;;;11.50;4.77;;;2.40;99.90;;;;;;5075066;28;20443;-50
2022/03/05 03:51:07;;;;;;;6.23;5.20;;;2.40;99.90;;;;;;5075276;28;20428;-56
2022/03/05 03:53:37;;;;;;;7.47;4.43;;;2.40;99.90;;;;;;5074922;28;20469;-56
2022/03/05 03:56:04;;;;;;;9.07;5.60;;;2.30;99.90;;;;;;5075114;28;20494;-56
2022/03/05 03:58:30;;;;;;;7.37;4.60;;;2.30;99.90;;;;;;5075459;28;20468;-49
2022/03/05 04:00:57;;;;;;;9.17;5.87;;;2.30;99.90;;;;;;5075656;28;20431;-60
2022/03/05 04:03:24;;;;;;;7.90;4.40;;;2.30;99.90;;;;;;5075326;28;20473;-54
2022/03/05 04:05:55;;;;;;;9.53;5.87;;;2.30;99.90;;;;;;5075704;28;20450;-58
2022/03/05 04:08:42;;;;;;;12.13;4.70;;;2.30;99.90;;;;;;5074948;28;20430;-54
2022/03/05 04:11:09;;;;;;;7.00;4.10;;;2.30;99.90;;;;;;5074960;28;20411;-57
2022/03/05 04:13:36;;;;;;;9.67;5.60;;;2.20;99.90;;;;;;5075010;28;20447;-52
2022/03/05 04:16:03;;;;;;;10.67;5.80;;;2.30;99.90;;;;;;5074956;28;20487;-56
2022/03/05 04:18:29;;;;;;;7.97;4.33;;;2.30;99.90;;;;;;5074983;28;20455;-58
2022/03/05 04:21:00;;;;;;;7.37;4.13;;;2.30;99.90;;;;;;5075167;28;20475;-58
2022/03/05 04:23:28;;;;;;;6.30;4.40;;;2.20;99.90;;;;;;5074955;28;20443;-53
2022/03/05 04:25:55;;;;;;;11.80;4.80;;;2.20;99.90;;;;;;5074760;28;20459;-55
2022/03/05 04:28:21;;;;;;;10.70;4.27;;;2.20;99.90;;;;;;5075530;28;20458;-60
2022/03/05 04:30:48;;;;;;;14.73;4.40;;;2.20;99.90;;;;;;5073889;28;20439;-59
2022/03/05 04:33:15;;;;;;;7.03;4.60;;;2.10;99.90;;;;;;5067005;28;20474;-58
2022/03/05 04:35:42;;;;;;;6.97;4.90;;;2.20;99.90;;;;;;5066996;28;20475;-57
2022/03/05 04:38:10;;;;;;;8.47;4.80;;;2.10;99.90;;;;;;5066886;28;20470;-54
2022/03/05 04:40:37;;;;;;;9.10;4.27;;;2.10;99.90;;;;;;5066446;28;20459;-58
2022/03/05 04:43:04;;;;;;;9.07;5.00;;;2.10;99.90;;;;;;5066523;28;20471;-59
2022/03/05 04:45:31;;;;;;;6.00;4.83;;;2.10;99.90;;;;;;5066557;28;20443;-59
2022/03/05 04:47:57;;;;;;;9.43;5.13;;;2.10;99.90;;;;;;5066204;28;20451;-58
2022/03/05 04:50:24;;;;;;;7.47;4.70;;;2.00;99.90;;;;;;5066378;28;20491;-54
2022/03/05 04:52:51;;;;;;;9.33;4.43;;;2.00;99.90;;;;;;5068368;28;20451;-55
2022/03/05 04:55:19;;;;;;;6.90;4.40;;;2.10;99.90;;;;;;5071130;28;20435;-60
2022/03/05 04:57:45;;;;;;;10.00;4.60;;;2.00;99.90;;;;;;5070711;28;20443;-56
2022/03/05 05:00:13;;;;;;;8.40;4.93;;;2.00;99.90;;;;;;5070464;28;20491;-60
2022/03/05 05:02:40;;;;;;;7.00;4.70;;;2.00;99.90;;;;;;5070529;28;20611;-55
2022/03/05 05:05:07;;;;;;;13.07;5.57;;;2.00;99.90;;;;;;5069768;28;20554;-59
2022/03/05 05:07:34;;;;;;;14.73;7.20;;;1.90;99.90;;;;;;5069778;28;20830;-56
2022/03/05 05:10:01;;;;;;;8.03;4.37;;;2.20;99.90;;;;;;5070568;28;20451;-54
2022/03/05 05:12:29;;;;;;;8.40;3.83;;;1.90;99.90;;;;;;5070390;28;20454;-60
2022/03/05 05:14:56;;;;;;;7.80;3.90;;;1.90;99.90;;;;;;5072696;28;20451;-60
2022/03/05 05:17:23;;;;;;;10.43;5.70;;;1.90;99.90;;;;;;5070100;28;20499;-58
2022/03/05 05:19:50;;;;;;;9.73;5.60;;;1.90;99.90;;;;;;5069976;28;20435;-55
2022/03/05 05:22:19;;;;;;;7.40;5.13;;;1.90;99.90;;;;;;5068810;28;20468;-56
2022/03/05 05:24:46;;;;;;;7.33;5.17;;;2.70;99.90;;;;;;5070054;28;20455;-59
2022/03/05 05:27:13;;;;;;;11.60;4.83;;;1.80;99.90;;;;;;5069417;28;20443;-59
2022/03/05 05:29:41;;;;;;;6.10;3.87;;;1.80;99.90;;;;;;5070261;28;20423;-59
2022/03/05 05:32:11;;;;;;;7.60;4.63;;;1.80;99.90;;;;;;5070866;28;20448;-54
2022/03/05 05:34:37;;;;;;;8.40;4.30;;;1.80;99.90;;;;;;5070995;28;20442;-60
2022/03/05 05:37:04;;;;;;;10.27;6.20;;;1.70;99.90;;;;;;5069976;28;20487;-59
2022/03/05 05:39:31;;;;;;;11.60;5.90;;;1.70;99.90;;;;;;5070357;28;20544;-60
2022/03/05 05:41:58;;;;;;;6.50;4.53;;;1.70;99.90;;;;;;5070660;28;20444;-59
2022/03/05 05:44:24;;;;;;;11.53;4.90;;;1.70;99.90;;;;;;5070092;28;20498;-55
2022/03/05 05:46:52;;;;;;;9.10;5.43;;;1.70;99.90;;;;;;5070838;28;20440;-55
2022/03/05 05:49:19;;;;;;;10.33;6.17;;;1.70;99.90;;;;;;5070607;28;20428;-58
2022/03/05 05:51:46;;;;;;;12.87;6.20;;;1.70;99.90;;;;;;5070172;28;20447;-56
2022/03/05 05:54:13;;;;;;;10.03;5.50;;;1.70;99.90;;;;;;5071963;28;20446;-57
2022/03/05 05:56:39;;;;;;;14.37;5.97;;;1.60;99.90;;;;;;5069949;28;20824;-59
2022/03/05 05:59:06;;;;;;;13.23;6.30;;;1.60;99.90;;;;;;5070361;28;20460;-59
2022/03/05 06:01:33;;;;;;;8.67;4.90;;;1.60;99.90;;;;;;5069729;28;20462;-61
2022/03/05 06:04:01;;;;;;;12.60;6.53;;;1.60;99.90;;;;;;5070414;28;20439;-60
2022/03/05 06:06:28;;;;;;;6.37;4.90;;;1.60;99.90;;;;;;5071179;28;20467;-59
2022/03/05 06:08:55;;;;;;;7.77;5.13;;;1.60;99.90;;;;;;5069993;28;20446;-57
2022/03/05 06:11:24;;;;;;;9.93;5.87;;;1.60;99.90;;;;;;5072077;28;20504;-57
2022/03/05 06:13:51;;;;;;;9.50;6.63;;;1.60;99.90;;;;;;5069905;28;20447;-52
2022/03/05 06:16:18;;;;;;;8.20;5.43;;;1.60;99.90;;;;;;5070029;28;20482;-58
2022/03/05 06:18:45;;;;;;;10.23;6.40;;;1.60;99.90;;;;;;5070072;28;20477;-58
2022/03/05 06:21:13;;;;;;;10.07;5.90;;;1.60;99.90;;;;;;5076238;28;20441;-52
2022/03/05 06:23:39;;;;;;;10.67;5.13;;;1.60;99.90;;;;;;5069136;28;20479;-53
2022/03/05 06:26:07;;;;;;;12.87;4.90;;;1.60;99.90;;;;;;5069307;28;20462;-59
2022/03/05 06:28:34;;;;;;;11.80;7.13;;;1.60;99.90;;;;;;5067936;28;20447;-57
2022/03/05 06:31:02;;;;;;;7.83;5.30;;;1.70;99.90;;;;;;5068311;28;20435;-60
2022/03/05 06:33:29;;;;;;;8.60;4.60;;;1.70;99.90;;;;;;5068745;28;20474;-57
2022/03/05 06:35:58;;;;;;;6.13;4.20;;;1.70;99.90;;;;;;5069712;28;20509;-56
2022/03/05 06:38:26;;;;;;;8.77;5.93;;;1.70;99.90;;;;;;5069598;28;20438;-54
2022/03/05 06:40:53;;;;;;;13.50;7.10;;;1.70;99.90;;;;;;5068798;28;20475;-59
2022/03/05 06:43:20;;;;;;;12.60;5.87;;;1.70;99.90;;;;;;5069695;28;20454;-52
2022/03/05 06:45:46;;;;;;;11.87;5.63;;;1.70;99.90;;;;;;5067574;28;20800;-57
2022/03/05 06:48:13;;;;;;;8.73;4.80;;;1.80;99.90;;;;;;5068974;28;20450;-59
2022/03/05 06:50:40;;;;;;;13.33;5.40;;;1.80;99.90;;;;;;5068666;28;20439;-56
2022/03/05 06:53:07;;;;;;;14.10;6.40;;;1.80;99.90;;;;;;5069589;28;20458;-60
2022/03/05 06:55:35;;;;;;;6.70;5.67;;;1.80;99.90;;;;;;5073984;28;20456;-58
2022/03/05 06:58:03;;;;;;;11.90;6.70;;;1.80;99.90;;;;;;5075317;28;20517;-52
2022/03/05 07:00:30;;;;;;;11.50;5.37;;;1.90;99.90;;;;;;5075240;28;20456;-54
2022/03/05 07:02:57;;;;;;;11.33;6.17;;;1.90;99.90;;;;;;5075811;28;20478;-53
2022/03/05 07:05:24;;;;;;;19.77;9.50;;;1.90;99.90;;;;;;5075194;28;20443;-54
2022/03/05 07:07:52;;;;;;;12.60;7.17;;;1.90;99.90;;;;;;5076341;28;20497;-63
2022/03/05 07:10:21;;;;;;;15.00;6.87;;;1.90;99.90;;;;;;5076401;28;20428;-54
2022/03/05 07:12:49;;;;;;;13.13;7.53;;;2.00;99.90;;;;;;5075080;28;20474;-54
2022/03/05 07:15:16;;;;;;;17.30;7.50;;;2.00;99.90;;;;;;5074969;28;20911;-54
2022/03/05 07:17:48;;;;;;;11.80;9.30;;;2.10;99.90;;;;;;5075749;28;20498;-57
2022/03/05 07:20:14;;;;;;;19.30;10.80;;;2.20;99.90;;;;;;5075188;28;20428;-60
2022/03/05 07:22:41;;;;;;;16.23;9.27;;;2.20;99.90;;;;;;5074402;28;20443;-59
2022/03/05 07:25:09;;;;;;;14.47;11.40;;;2.20;99.90;;;;;;5074636;28;20474;-56
2022/03/05 07:27:36;;;;;;;19.33;11.57;;;2.20;99.90;;;;;;5070678;28;20493;-59
2022/03/05 07:30:05;;;;;;;23.37;12.23;;;2.20;99.90;;;;;;5066464;28;20462;-60
2022/03/05 07:32:32;;;;;;;19.90;10.37;;;2.30;99.90;;;;;;5066401;28;20459;-58
2022/03/05 07:34:59;;;;;;;14.10;9.83;;;2.30;99.90;;;;;;5067361;28;20470;-57
2022/03/05 07:37:26;;;;;;;13.70;9.20;;;2.30;99.90;;;;;;5066328;28;20850;-60
2022/03/05 07:39:52;;;;;;;18.93;10.00;;;2.40;99.90;;;;;;5066851;28;20486;-60
2022/03/05 07:42:19;;;;;;;10.93;8.10;;;2.40;99.90;;;;;;5066039;28;20443;-57
2022/03/05 07:44:46;;;;;;;17.20;9.17;;;2.40;99.90;;;;;;5065396;28;20528;-60
2022/03/05 07:47:15;;;;;;;11.43;8.13;;;2.50;99.90;;;;;;5060201;28;20817;-59
2022/03/05 07:49:41;;;;;;;16.43;10.17;;;2.60;99.90;;;;;;5072833;28;20490;-56
2022/03/05 07:52:08;;;;;;;22.63;9.30;;;2.60;99.90;;;;;;5073198;28;20435;-57
2022/03/05 07:54:35;;;;;;;14.20;7.77;;;2.60;99.90;;;;;;5073620;28;20541;-57
2022/03/05 07:57:04;;;;;;;13.93;9.97;;;2.60;99.90;;;;;;5074310;28;20529;-59
2022/03/05 07:59:30;;;;;;;12.30;9.00;;;2.70;99.90;;;;;;5073704;28;20466;-56
2022/03/05 08:02:05;;;;;;;12.60;7.03;;;2.70;99.90;;;;;;5073544;28;20440;-58
2022/03/05 08:04:33;;;;;;;16.37;7.93;;;2.80;99.90;;;;;;5073735;28;20454;-58
2022/03/05 08:06:59;;;;;;;9.30;7.10;;;2.80;99.90;;;;;;5073973;28;20435;-56
2022/03/05 08:09:26;;;;;;;12.13;7.30;;;2.90;99.90;;;;;;5073825;28;20435;-57
2022/03/05 08:11:55;;;;;;;11.30;9.10;;;2.90;99.90;;;;;;5073116;28;20462;-55
2022/03/05 08:14:21;;;;;;;15.13;9.97;;;2.90;99.90;;;;;;5073909;28;20497;-55
2022/03/05 08:16:48;;;;;;;17.43;11.37;;;2.90;99.90;;;;;;5072966;28;20487;-54
2022/03/05 08:19:17;;;;;;;14.33;10.20;;;3.00;99.90;;;;;;5073157;28;20436;-56
2022/03/05 08:21:48;;;;;;;14.87;10.10;;;3.10;99.90;;;;;;5072529;28;20462;-58
2022/03/05 08:24:15;;;;;;;17.10;10.93;;;3.20;99.90;;;;;;5072139;28;20483;-57
2022/03/05 08:26:43;;;;;;;15.50;10.50;;;3.30;99.90;;;;;;5073815;28;20467;-58
2022/03/05 08:29:10;;;;;;;21.83;10.60;;;3.40;99.90;;;;;;5076327;28;20439;-55
2022/03/05 08:31:36;;;;;;;15.63;10.90;;;3.50;99.90;;;;;;5075153;28;20526;-52
2022/03/05 08:34:03;;;;;;;14.47;9.40;;;3.50;99.90;;;;;;5076108;28;20439;-58
2022/03/05 08:36:33;;;;;;;22.70;10.60;;;3.60;99.90;;;;;;5076795;28;20497;-58
2022/03/05 08:39:01;;;;;;;19.77;10.23;;;3.60;99.90;;;;;;5076887;28;20438;-63
2022/03/05 08:41:28;;;;;;;12.50;10.53;;;3.70;99.90;;;;;;5076177;28;20514;-61
2022/03/05 08:43:54;;;;;;;12.37;8.63;;;3.80;99.90;;;;;;5076836;28;20410;-58
2022/03/05 08:46:21;;;;;;;18.63;9.37;;;3.90;99.90;;;;;;5075827;28;20502;-58
2022/03/05 08:48:48;;;;;;;13.27;8.77;;;3.90;99.90;;;;;;5075957;28;20427;-60
2022/03/05 08:51:15;;;;;;;12.50;8.47;;;4.10;99.90;;;;;;5074984;28;20720;-54
2022/03/05 08:53:42;;;;;;;15.17;8.53;;;4.20;99.90;;;;;;5073468;28;20477;-60
2022/03/05 08:56:10;;;;;;;14.37;9.20;;;4.20;99.90;;;;;;5074007;28;20904;-60
2022/03/05 08:58:37;;;;;;;10.70;7.20;;;4.30;99.90;;;;;;5073196;28;20478;-60
2022/03/05 09:01:04;;;;;;;16.40;8.17;;;4.50;99.90;;;;;;5061432;28;20471;-59
2022/03/05 09:03:30;;;;;;;11.70;8.30;;;5.10;99.90;;;;;;5048532;28;20448;-61
2022/03/05 09:05:57;;;;;;;10.33;6.70;;;5.90;99.90;;;;;;5045236;28;20474;-58
2022/03/05 09:08:24;;;;;;;14.87;6.90;;;7.20;99.90;;;;;;5043712;28;20481;-60
2022/03/05 09:10:54;;;;;;;9.67;7.10;;;8.70;99.90;;;;;;5041736;28;20460;-60
2022/03/05 09:13:22;;;;;;;12.73;7.20;;;10.10;99.90;;;;;;5041188;28;20432;-57
2022/03/05 09:15:49;;;;;;;11.20;7.33;;;11.60;99.90;;;;;;5040331;28;20448;-58
2022/03/05 09:18:15;;;;;;;15.10;8.53;;;12.70;92.90;;;;;;5040367;28;20495;-60
2022/03/05 09:20:46;;;;;;;14.57;8.37;;;13.50;85.80;;;;;;5057655;28;20730;-58
2022/03/05 09:23:12;;;;;;;18.40;8.43;;;14.20;79.50;;;;;;5059861;28;20470;-59
2022/03/05 09:25:39;;;;;;;10.33;7.33;;;15.30;74.40;;;;;;5059772;28;20451;-56
2022/03/05 09:28:06;;;;;;;12.27;7.10;;;16.40;68.50;;;;;;5059433;28;20467;-60
2022/03/05 09:30:34;;;;;;;10.40;7.67;;;17.00;60.00;;;;;;5059295;28;20823;-60
2022/03/05 09:33:01;;;;;;;8.73;6.57;;;16.80;56.70;;;;;;5059117;28;20478;-59
2022/03/05 09:35:27;;;;;;;15.70;8.07;;;15.80;56.50;;;;;;5059883;28;20518;-60
2022/03/05 09:37:54;;;;;;;8.40;6.23;;;14.60;58.00;;;;;;5059883;28;20556;-60
2022/03/05 09:40:21;;;;;;;13.50;7.70;;;13.10;60.40;;;;;;5061314;28;20446;-60
2022/03/05 09:42:50;;;;;;;14.73;7.23;;;11.90;64.80;;;;;;5062263;28;20558;-58
2022/03/05 09:45:17;;;;;;;11.73;6.80;;;11.00;68.60;;;;;;5061763;28;20428;-58
2022/03/05 09:47:46;;;;;;;11.87;6.77;;;10.30;73.80;;;;;;5062419;28;20517;-57
2022/03/05 09:50:13;;;;;;;10.93;6.63;;;10.60;77.80;;;;;;5062316;28;20453;-58
2022/03/05 09:52:40;;;;;;;10.07;6.10;;;11.30;77.20;;;;;;5061580;28;20455;-59
2022/03/05 09:55:08;;;;;;;10.07;6.30;;;12.20;73.10;;;;;;5062149;28;20525;-58
2022/03/05 09:57:35;;;;;;;10.33;7.03;;;13.10;70.70;;;;;;5062629;28;20483;-57
2022/03/05 10:00:03;;;;;;;7.10;6.40;;;14.10;67.80;;;;;;5061305;28;20509;-59
2022/03/05 10:02:31;;;;;;;10.13;7.53;;;15.00;63.30;;;;;;5059550;28;20462;-59
2022/03/05 10:05:15;;;;;;;13.47;6.60;;;15.80;59.80;;;;;;5058907;28;20471;-60
2022/03/05 10:07:59;;;;;;;7.33;5.83;;;16.60;57.70;;;;;;5058167;28;20446;-56
2022/03/05 10:10:26;;;;;;;13.03;8.20;;;16.90;55.60;;;;;;5059293;28;20420;-59
2022/03/05 10:12:53;;;;;;;7.40;5.97;;;17.30;54.80;;;;;;5058906;28;20443;-63
2022/03/05 10:15:21;;;;;;;8.13;6.60;;;17.40;53.90;;;;;;5058914;28;20444;-58
2022/03/05 10:17:53;;;;;;;8.60;7.20;;;17.50;53.10;;;;;;5058769;28;20483;-58
2022/03/05 10:20:23;;;;;;;9.37;6.80;;;17.60;52.10;;;;;;5058544;28;20956;-62
2022/03/05 10:23:02;;;;;;;8.47;6.33;;;17.40;52.10;;;;;;5058988;28;20785;-59
2022/03/05 10:25:40;;;;;;;10.20;7.20;;;17.30;52.40;;;;;;5059296;28;20474;-58
2022/03/05 10:28:09;;;;;;;10.03;6.07;;;17.40;52.20;;;;;;5057755;28;20783;-58
2022/03/05 10:30:38;;;;;;;10.93;6.90;;;17.30;51.10;;;;;;5058317;28;20457;-60
2022/03/05 10:33:06;;;;;;;8.70;6.20;;;16.80;51.30;;;;;;5058754;28;20447;-54
2022/03/05 10:35:34;;;;;;;10.63;6.43;;;16.30;51.70;;;;;;5057102;28;20471;-59
2022/03/05 10:38:01;;;;;;;7.30;5.97;;;15.70;52.20;;;;;;5054948;28;21014;-59
2022/03/05 10:40:37;;;;;;;9.17;6.27;;;15.10;53.50;;;;;;5054937;28;20458;-59
2022/03/05 10:43:07;;;;;;;11.83;6.70;;;15.00;54.00;;;;;;5049404;28;20799;-61
2022/03/05 10:45:50;;;;;;;8.43;6.63;;;14.60;54.00;;;;;;5055624;28;20509;-62
2022/03/05 10:48:22;;;;;;;9.23;5.90;;;13.50;55.80;;;;;;5056454;28;20434;-60
2022/03/05 10:50:56;;;;;;;8.20;6.07;;;12.90;57.30;;;;;;5040437;28;20439;-62
2022/03/05 10:53:39;;;;;;;9.80;5.83;;;12.90;57.90;;;;;;5035094;28;20562;-61
2022/03/05 10:56:36;;;;;;;10.30;6.03;;;13.20;58.00;;;;;;5035123;28;20440;-62
2022/03/05 10:59:09;;;;;;;15.53;8.03;;;13.60;58.60;;;;;;4974043;28;20490;-58
2022/03/05 11:01:37;;;;;;;6.83;5.30;;;13.80;57.10;;;;;;5022990;28;20492;-62
2022/03/05 11:04:05;;;;;;;9.47;6.27;;;13.70;56.40;;;;;;5034772;28;20507;-60
2022/03/05 11:06:37;;;;;;;8.47;5.43;;;13.10;56.80;;;;;;5052026;28;20534;-59
2022/03/05 11:09:04;;;;;;;11.60;6.60;;;12.30;58.00;;;;;;5054966;28;20482;-59
2022/03/05 11:11:31;;;;;;;6.87;4.90;;;12.20;59.10;;;;;;5054780;28;20447;-60
2022/03/05 11:13:59;;;;;;;9.13;5.53;;;12.20;58.80;;;;;;5054750;28;20481;-59
2022/03/05 11:16:26;;;;;;;6.20;4.70;;;12.20;58.70;;;;;;5054852;28;20459;-61
2022/03/05 11:18:54;;;;;;;10.93;6.37;;;12.30;59.10;;;;;;5054365;28;20585;-62
2022/03/05 11:21:20;;;;;;;8.07;5.20;;;12.30;58.50;;;;;;5054636;28;20435;-60
2022/03/05 11:23:48;;;;;;;13.57;5.57;;;12.10;59.90;;;;;;5054426;28;20447;-61
2022/03/05 11:26:16;;;;;;;12.63;5.47;;;12.00;59.80;;;;;;5054521;28;20516;-59
2022/03/05 11:28:48;;;;;;;14.53;5.80;;;12.00;59.90;;;;;;5054629;28;20443;-61
2022/03/05 11:31:17;;;;;;;11.43;5.90;;;11.90;60.80;;;;;;5054583;28;20443;-59
2022/03/05 11:33:45;;;;;;;7.60;5.30;;;11.70;60.60;;;;;;5054564;28;20481;-59
2022/03/05 11:36:26;;;;;;;11.10;5.47;;;11.30;60.50;;;;;;5054310;28;20544;-61
2022/03/05 11:39:12;;;;;;;9.00;5.17;;;11.00;61.70;;;;;;5054489;28;20520;-58
2022/03/05 11:41:53;;;;;;;5.87;4.60;;;10.50;63.40;;;;;;5054584;28;20443;-59
2022/03/05 11:44:22;;;;;;;12.23;5.60;;;10.00;65.20;;;;;;5054601;28;20757;-60
2022/03/05 11:46:50;;;;;;;7.93;5.70;;;9.70;67.60;;;;;;5055753;28;20473;-63
2022/03/05 11:49:17;;;;;;;7.47;5.30;;;9.30;69.30;;;;;;5054780;28;20775;-63
2022/03/05 11:51:54;;;;;;;8.93;5.43;;;9.00;71.00;;;;;;5054314;28;20473;-61
2022/03/05 11:54:23;;;;;;;10.60;6.10;;;8.80;73.60;;;;;;5054141;28;20876;-60
2022/03/05 11:57:08;;;;;;;8.30;6.03;;;8.50;74.50;;;;;;5054181;28;20536;-60
2022/03/05 11:59:36;;;;;;;8.03;5.03;;;8.30;75.90;;;;;;5054268;28;20467;-61
2022/03/05 12:02:03;;;;;;;6.77;4.43;;;8.20;78.30;;;;;;5056772;28;20481;-62
2022/03/05 12:04:30;;;;;;;7.63;5.30;;;8.20;82.60;;;;;;5058524;28;20435;-64
2022/03/05 12:07:00;;;;;;;7.07;5.17;;;8.10;82.40;;;;;;5057677;28;20471;-63
2022/03/05 12:09:44;;;;;;;11.23;6.47;;;8.10;83.00;;;;;;5058258;28;20427;-60
2022/03/05 12:12:14;;;;;;;9.30;5.50;;;8.20;84.90;;;;;;5058195;28;20540;-63
2022/03/05 12:15:08;;;;;;;6.00;4.40;;;8.30;85.80;;;;;;5058167;28;20540;-62
2022/03/05 12:17:38;;;;;;;8.87;5.37;;;8.50;84.60;;;;;;5056267;28;20455;-63
2022/03/05 12:20:05;;;;;;;7.53;4.53;;;8.60;85.20;;;;;;5057967;28;20431;-61
2022/03/05 12:22:33;;;;;;;8.50;4.67;;;8.70;83.00;;;;;;5057973;28;20874;-62
2022/03/05 12:25:01;;;;;;;9.07;5.80;;;8.70;81.00;;;;;;5058029;28;20454;-61
2022/03/05 12:27:30;;;;;;;7.57;5.70;;;8.60;79.30;;;;;;5057616;28;20446;-62
2022/03/05 12:29:58;;;;;;;6.27;4.40;;;8.50;79.00;;;;;;5057292;28;21021;-63
2022/03/05 12:32:31;;;;;;;6.87;4.00;;;8.40;79.30;;;;;;5057522;28;20462;-61
2022/03/05 12:35:07;;;;;;;9.53;3.53;;;8.30;79.10;;;;;;5072990;28;20475;-61
2022/03/05 12:37:35;;;;;;;4.80;3.90;;;8.20;78.60;;;;;;5076066;28;20481;-60
2022/03/05 12:40:06;;;;;;;7.50;4.30;;;8.20;79.80;;;;;;5076710;28;20481;-62
2022/03/05 12:42:42;;;;;;;6.00;4.40;;;8.20;80.30;;;;;;5076577;28;20450;-61
2022/03/05 12:45:15;;;;;;;9.83;4.37;;;8.20;81.30;;;;;;5076694;28;20463;-58
2022/03/05 12:47:42;;;;;;;7.10;3.63;;;8.20;82.60;;;;;;5076411;28;20423;-60
2022/03/05 12:50:29;;;;;;;5.47;4.10;;;8.20;83.10;;;;;;5075688;28;20447;-61
2022/03/05 12:55:56;;;;;;;8.00;4.00;;;8.60;83.80;;;;;;5060961;28;20455;-62
2022/03/05 12:58:24;;;;;;;7.30;4.00;;;8.90;82.30;;;;;;5060854;28;20471;-61
2022/03/05 13:00:52;;;;;;;4.53;3.93;;;9.00;81.40;;;;;;5061605;28;20443;-62